Time;durP1;ratioP1;P1;durP2;ratioP2;P2;SDS_P1;SDS_P2;PMS_P1;PMS_P2;Temp;Humidity;BMP_temperature;BMP_pressure;BME280_temperature;BME280_humidity;BME280_pressure;Samples;Min_cycle;Max_cycle;Signal;HPM_P1;HPM_P2
2024/03/29 00:00:24;;;;;;;2.00;0.70;;;;;;;18.62;40.61;99004.13;5046956;28;20025;-71
2024/03/29 00:02:50;;;;;;;2.88;0.80;;;;;;;18.57;40.40;99006.47;5050796;28;20046;-68
2024/03/29 00:05:15;;;;;;;2.25;0.80;;;;;;;18.61;40.16;99005.13;5054123;28;20143;-69
2024/03/29 00:07:40;;;;;;;2.10;0.70;;;;;;;18.55;40.58;98998.72;5056232;28;20040;-68
2024/03/29 00:10:06;;;;;;;2.80;0.90;;;;;;;18.58;40.11;98998.38;5050183;28;20036;-69
2024/03/29 00:12:31;;;;;;;3.03;0.82;;;;;;;18.54;40.12;98999.72;5049943;28;20116;-72
2024/03/29 00:14:56;;;;;;;2.00;0.73;;;;;;;18.53;40.20;98990.16;5054199;28;20033;-70
2024/03/29 00:17:22;;;;;;;1.75;0.70;;;;;;;18.58;40.07;99000.19;5044994;28;20029;-70
2024/03/29 00:19:47;;;;;;;1.50;0.57;;;;;;;18.55;39.97;99014.56;5051794;28;20037;-70
2024/03/29 00:22:12;;;;;;;2.53;0.80;;;;;;;18.59;39.89;99022.94;5059096;28;20074;-69
2024/03/29 00:24:38;;;;;;;2.85;1.00;;;;;;;18.59;39.79;99033.50;5054391;28;20103;-71
2024/03/29 00:27:04;;;;;;;2.08;0.63;;;;;;;18.53;39.94;99028.91;5054790;28;20902;-69
2024/03/29 00:29:29;;;;;;;3.35;1.05;;;;;;;18.63;40.13;99048.00;5044268;28;20094;-67
2024/03/29 00:31:55;;;;;;;3.03;0.88;;;;;;;18.58;39.84;99040.59;5046460;28;20029;-68
2024/03/29 00:34:20;;;;;;;2.22;0.70;;;;;;;18.59;39.72;99038.78;5044667;28;20132;-69
2024/03/29 00:36:46;;;;;;;1.83;0.60;;;;;;;18.52;39.73;99022.81;5044713;28;20039;-69
2024/03/29 00:39:11;;;;;;;3.17;0.70;;;;;;;18.60;39.66;99040.44;5050188;28;20029;-69
2024/03/29 00:41:37;;;;;;;3.33;0.82;;;;;;;18.48;39.65;99024.97;5057363;28;20398;-69
2024/03/29 00:44:02;;;;;;;1.75;0.50;;;;;;;18.42;39.83;99019.53;5052364;28;20115;-72
2024/03/29 00:46:28;;;;;;;3.50;0.90;;;;;;;18.43;39.85;99024.66;5056975;28;20389;-68
2024/03/29 00:48:53;;;;;;;2.17;0.60;;;;;;;18.40;39.73;99035.53;5048679;28;20053;-67
2024/03/29 00:51:18;;;;;;;2.42;0.65;;;;;;;18.52;39.52;99057.09;5050207;28;20078;-69
2024/03/29 00:53:44;;;;;;;1.65;0.57;;;;;;;18.43;39.70;99035.19;5048399;28;20051;-69
2024/03/29 00:56:09;;;;;;;1.85;0.57;;;;;;;18.37;39.54;99035.06;5048988;28;20358;-68
2024/03/29 00:58:34;;;;;;;2.70;0.70;;;;;;;18.53;39.39;99060.56;5047339;28;20044;-68
2024/03/29 01:01:00;;;;;;;2.20;0.70;;;;;;;18.53;39.53;99060.56;5057721;28;20040;-68
2024/03/29 01:03:28;;;;;;;3.10;1.15;;;;;;;18.39;39.64;99044.47;5047251;28;20041;-69
2024/03/29 01:05:54;;;;;;;2.20;0.80;;;;;;;18.38;39.49;99040.16;5043048;28;20521;-68
2024/03/29 01:08:19;;;;;;;2.85;0.70;;;;;;;18.40;39.71;99053.19;5054268;28;20062;-68
2024/03/29 01:10:44;;;;;;;3.35;0.90;;;;;;;18.44;39.55;99057.94;5055039;28;20032;-71
2024/03/29 01:13:10;;;;;;;1.38;0.60;;;;;;;18.27;39.65;99033.44;5051961;28;20081;-68
2024/03/29 01:15:35;;;;;;;2.97;0.80;;;;;;;18.47;39.35;99054.97;5051940;28;20490;-70
2024/03/29 01:18:00;;;;;;;3.42;0.90;;;;;;;18.42;39.24;99040.63;5052272;28;20039;-68
2024/03/29 01:20:25;;;;;;;1.83;0.80;;;;;;;18.38;39.66;99036.72;5048552;28;20129;-71
2024/03/29 01:22:51;;;;;;;2.47;0.73;;;;;;;18.35;39.41;99021.22;5054880;28;20517;-67
2024/03/29 01:25:17;;;;;;;1.53;0.50;;;;;;;18.33;39.64;99015.31;5055493;28;20037;-72
2024/03/29 01:27:42;;;;;;;2.30;0.70;;;;;;;18.43;39.36;99035.19;5051321;28;20711;-72
2024/03/29 01:30:08;;;;;;;2.80;0.60;;;;;;;18.20;39.47;98992.94;5053847;28;20024;-69
2024/03/29 01:32:33;;;;;;;2.17;0.60;;;;;;;18.43;39.54;99016.72;5050118;28;20025;-68
2024/03/29 01:34:59;;;;;;;2.45;0.90;;;;;;;18.21;39.52;98985.84;5051317;28;20442;-68
2024/03/29 01:37:24;;;;;;;1.60;0.63;;;;;;;18.32;39.52;99006.56;5049231;28;20133;-70
2024/03/29 01:39:49;;;;;;;2.97;0.85;;;;;;;18.27;39.48;98990.44;5050599;28;20033;-69
2024/03/29 01:42:14;;;;;;;2.65;0.63;;;;;;;18.27;39.62;98977.25;5049147;28;20045;-67
2024/03/29 01:44:40;;;;;;;2.08;0.70;;;;;;;18.36;39.47;98984.13;5052987;28;20028;-70
2024/03/29 01:47:05;;;;;;;2.63;0.80;;;;;;;18.27;39.38;98962.25;5052746;28;20032;-67
2024/03/29 01:49:31;;;;;;;2.78;0.68;;;;;;;18.36;39.28;98978.03;5049700;28;20394;-69
2024/03/29 01:51:56;;;;;;;3.38;0.80;;;;;;;18.40;39.31;98995.97;5043358;28;20155;-69
2024/03/29 01:54:22;;;;;;;2.40;0.70;;;;;;;18.23;39.30;98975.94;5054243;28;20036;-71
2024/03/29 01:56:48;;;;;;;2.17;0.50;;;;;;;18.31;39.29;98991.75;5054198;28;20036;-71
2024/03/29 01:59:16;;;;;;;2.03;0.60;;;;;;;18.28;39.35;98990.25;5052572;28;20603;-68
2024/03/29 02:01:42;;;;;;;2.78;0.80;;;;;;;18.34;39.42;98991.41;5056927;28;20029;-72
2024/03/29 02:04:08;;;;;;;3.08;0.65;;;;;;;18.21;39.25;98978.75;5044123;28;20149;-69
2024/03/29 02:06:33;;;;;;;3.72;0.60;;;;;;;18.31;39.38;98992.56;5053474;28;20509;-68
2024/03/29 02:08:59;;;;;;;1.75;0.80;;;;;;;18.28;39.61;98987.63;5054591;28;20048;-70
2024/03/29 02:11:24;;;;;;;1.95;0.60;;;;;;;18.22;39.45;98988.31;5054285;28;20482;-68
2024/03/29 02:13:50;;;;;;;2.47;0.65;;;;;;;18.34;39.32;99011.66;5052350;28;20028;-69
2024/03/29 02:16:16;;;;;;;1.77;0.50;;;;;;;18.33;39.14;99020.59;5039535;28;20032;-68
2024/03/29 02:18:41;;;;;;;2.22;0.60;;;;;;;18.20;39.36;99007.91;5059365;28;20284;-71
2024/03/29 02:21:07;;;;;;;1.63;0.70;;;;;;;18.30;38.92;99034.91;5046876;28;20040;-69
2024/03/29 02:23:36;;;;;;;2.70;0.70;;;;;;;18.24;39.38;99019.78;5051587;28;20138;-68
2024/03/29 02:26:03;;;;;;;2.03;0.60;;;;;;;18.31;39.28;99018.94;5054450;28;20045;-69
2024/03/29 02:28:28;;;;;;;3.05;0.90;;;;;;;18.19;39.38;99016.81;5045241;28;20036;-69
2024/03/29 02:30:53;;;;;;;2.28;0.70;;;;;;;18.16;39.09;99017.97;5044999;28;20021;-68
2024/03/29 02:33:21;;;;;;;2.40;0.80;;;;;;;18.08;39.26;98996.91;5052740;28;20106;-68
2024/03/29 02:35:46;;;;;;;2.47;0.50;;;;;;;18.25;39.16;99027.50;5043137;28;20512;-68
2024/03/29 02:38:11;;;;;;;1.20;0.60;;;;;;;18.17;39.06;99014.38;5046448;28;20246;-70
2024/03/29 02:40:36;;;;;;;2.08;0.60;;;;;;;18.24;39.00;99032.97;5046343;28;20063;-67
2024/03/29 02:43:02;;;;;;;3.08;0.70;;;;;;;18.29;39.23;99042.03;5057391;28;20453;-68
2024/03/29 02:45:27;;;;;;;2.15;0.88;;;;;;;18.16;39.28;99025.88;5048053;28;20079;-68
2024/03/29 02:47:52;;;;;;;1.75;0.57;;;;;;;18.12;39.32;99032.50;5041531;28;20479;-67
2024/03/29 02:50:18;;;;;;;2.30;0.60;;;;;;;18.12;39.24;99028.03;5060417;28;20032;-68
2024/03/29 02:52:43;;;;;;;1.30;0.50;;;;;;;18.15;39.22;99026.91;5057828;28;20024;-70
2024/03/29 02:55:10;;;;;;;2.47;0.70;;;;;;;18.10;39.24;99024.75;5060707;28;20024;-67
2024/03/29 02:57:36;;;;;;;2.13;0.77;;;;;;;18.22;39.16;99046.31;5050780;28;20029;-67
2024/03/29 03:00:03;;;;;;;1.73;0.50;;;;;;;18.13;39.07;99028.84;5056639;28;20047;-69
2024/03/29 03:02:28;;;;;;;2.08;0.75;;;;;;;18.09;39.17;99040.75;5054305;28;20028;-69
2024/03/29 03:04:53;;;;;;;2.22;0.60;;;;;;;18.22;39.31;99062.13;5048188;28;20202;-69
2024/03/29 03:12:47;;;;;;;1.75;0.63;;;;;;;18.24;39.29;99073.31;5056831;28;20421;-68
2024/03/29 03:15:12;;;;;;;1.88;0.50;;;;;;;18.20;39.01;99074.66;5049928;28;20033;-68
2024/03/29 03:17:38;;;;;;;2.35;0.70;;;;;;;18.08;38.98;99050.44;5052844;28;20033;-69
2024/03/29 03:20:06;;;;;;;1.65;0.60;;;;;;;18.15;39.00;99049.78;5052246;28;20055;-69
2024/03/29 03:22:32;;;;;;;1.75;0.60;;;;;;;18.20;39.06;99066.75;5049716;28;20037;-69
2024/03/29 03:24:57;;;;;;;2.38;0.65;;;;;;;18.18;39.26;99075.81;5052058;28;20439;-69
2024/03/29 03:27:23;;;;;;;2.78;0.50;;;;;;;18.07;39.29;99043.56;5053909;28;20123;-72
2024/03/29 03:29:48;;;;;;;2.13;0.52;;;;;;;18.06;39.69;99039.25;5053032;28;20065;-68
2024/03/29 03:32:14;;;;;;;1.42;0.55;;;;;;;18.20;39.08;99058.84;5049872;28;20451;-69
2024/03/29 03:34:39;;;;;;;1.63;0.50;;;;;;;18.13;39.81;99047.31;5052339;28;20028;-69
2024/03/29 03:37:05;;;;;;;2.65;0.93;;;;;;;18.20;39.46;99060.63;5043013;28;20033;-71
2024/03/29 03:39:30;;;;;;;1.45;0.45;;;;;;;18.15;39.70;99063.81;5056557;28;20129;-69
2024/03/29 03:41:55;;;;;;;2.17;0.55;;;;;;;18.07;39.61;99056.72;5052090;28;20036;-71
2024/03/29 03:44:23;;;;;;;0.90;0.40;;;;;;;18.00;39.80;99031.22;5053592;28;20083;-68
2024/03/29 03:46:49;;;;;;;1.90;0.60;;;;;;;17.97;39.73;99034.16;5055867;28;20115;-72
2024/03/29 03:49:15;;;;;;;2.35;0.60;;;;;;;18.08;39.88;99049.63;5045773;28;20586;-68
2024/03/29 03:51:40;;;;;;;1.33;0.50;;;;;;;18.15;40.04;99060.31;5046659;28;20036;-69
2024/03/29 03:54:05;;;;;;;1.77;0.55;;;;;;;18.11;39.81;99065.13;5047947;28;20906;-70
2024/03/29 03:56:30;;;;;;;0.90;0.40;;;;;;;18.06;39.77;99057.72;5043853;28;20055;-68
2024/03/29 03:58:56;;;;;;;2.20;0.60;;;;;;;18.02;39.86;99053.75;5054871;28;20684;-70
2024/03/29 04:01:21;;;;;;;1.25;0.50;;;;;;;18.05;39.90;99066.59;5052279;28;20041;-68
2024/03/29 04:03:46;;;;;;;1.25;0.47;;;;;;;18.04;39.95;99072.88;5047485;28;20920;-69
2024/03/29 04:06:11;;;;;;;1.58;0.50;;;;;;;18.18;40.08;99095.09;5047739;28;20056;-68
2024/03/29 04:08:37;;;;;;;2.38;0.60;;;;;;;17.99;39.91;99085.75;5054359;28;20179;-71
2024/03/29 04:11:03;;;;;;;1.60;0.47;;;;;;;18.12;39.97;99096.59;5054430;28;20028;-68
2024/03/29 04:13:28;;;;;;;2.13;0.47;;;;;;;17.90;39.98;99055.91;5054127;28;20059;-71
2024/03/29 04:16:01;;;;;;;1.80;0.52;;;;;;;17.98;40.09;99081.44;5044757;28;20028;-68
2024/03/29 04:18:26;;;;;;;1.58;0.50;;;;;;;18.00;40.22;99092.63;5054851;28;20032;-69
2024/03/29 04:21:02;;;;;;;1.98;0.70;;;;;;;18.10;40.17;99111.75;5048973;28;20036;-69
2024/03/29 04:23:28;;;;;;;1.42;0.40;;;;;;;18.04;40.27;99088.69;5044951;28;20429;-68
2024/03/29 04:25:57;;;;;;;1.83;0.60;;;;;;;18.05;40.24;99095.59;5041643;28;20036;-68
2024/03/29 04:28:24;;;;;;;1.33;0.50;;;;;;;18.12;40.33;99099.22;5050943;28;20539;-68
2024/03/29 04:30:54;;;;;;;1.95;0.70;;;;;;;17.97;40.37;99071.88;5058358;28;20414;-68
2024/03/29 04:33:20;;;;;;;1.77;0.70;;;;;;;18.09;40.33;99094.28;5049815;28;20063;-68
2024/03/29 04:36:03;;;;;;;1.83;0.52;;;;;;;17.89;40.54;99066.63;5048661;28;20024;-69
2024/03/29 04:38:29;;;;;;;1.48;0.50;;;;;;;18.04;40.54;99098.41;5052715;28;20032;-69
2024/03/29 04:40:56;;;;;;;1.27;0.50;;;;;;;18.10;40.46;99106.50;5053057;28;20135;-68
2024/03/29 04:43:22;;;;;;;2.45;0.50;;;;;;;18.13;40.40;99111.44;5050833;28;21281;-71
2024/03/29 04:45:48;;;;;;;2.33;0.50;;;;;;;17.99;40.72;99084.91;5047202;28;20063;-68
2024/03/29 04:48:14;;;;;;;1.35;0.50;;;;;;;18.01;40.58;99096.94;5053114;28;20053;-67
2024/03/29 04:50:39;;;;;;;2.03;0.60;;;;;;;17.95;40.86;99072.06;5051476;28;20044;-68
2024/03/29 04:53:05;;;;;;;1.10;0.43;;;;;;;18.11;40.57;99113.38;5055845;28;20028;-67
2024/03/29 04:55:30;;;;;;;1.90;0.57;;;;;;;17.94;40.84;99086.25;5049514;28;20099;-68
2024/03/29 04:57:56;;;;;;;1.42;0.50;;;;;;;17.93;40.63;99075.84;5056771;28;21148;-68
2024/03/29 05:00:21;;;;;;;1.75;0.60;;;;;;;18.10;40.86;99113.56;5046855;28;20033;-68
2024/03/29 05:02:46;;;;;;;1.30;0.40;;;;;;;18.08;40.71;99108.44;5047185;28;20775;-69
2024/03/29 05:05:12;;;;;;;2.13;0.68;;;;;;;17.94;40.88;99072.22;5057532;28;20107;-68
2024/03/29 05:07:37;;;;;;;3.00;0.60;;;;;;;18.04;40.92;99082.56;5053739;28;20108;-68
2024/03/29 05:10:12;;;;;;;2.40;0.60;;;;;;;18.00;40.77;99079.47;5049330;28;20095;-70
2024/03/29 05:12:38;;;;;;;2.83;0.63;;;;;;;18.02;40.69;99080.09;5050850;28;20037;-69
2024/03/29 05:15:03;;;;;;;1.23;0.47;;;;;;;18.05;40.78;99089.50;5052506;28;20028;-69
2024/03/29 05:17:29;;;;;;;1.23;0.50;;;;;;;18.08;40.92;99092.63;5046829;28;20029;-69
2024/03/29 05:19:54;;;;;;;2.65;0.60;;;;;;;17.94;40.87;99082.75;5055042;28;20036;-69
2024/03/29 05:22:20;;;;;;;1.10;0.50;;;;;;;18.07;41.10;99101.53;5054897;28;20029;-71
2024/03/29 05:24:45;;;;;;;1.05;0.52;;;;;;;18.01;41.17;99090.81;5039792;28;20029;-68
2024/03/29 05:27:14;;;;;;;1.92;0.70;;;;;;;17.91;41.15;99060.22;5049862;28;20028;-70
2024/03/29 05:29:39;;;;;;;2.13;0.63;;;;;;;18.04;41.14;99079.94;5052799;28;20068;-70
2024/03/29 05:32:06;;;;;;;2.40;0.60;;;;;;;18.02;41.27;99066.94;5044789;28;20064;-71
2024/03/29 05:34:31;;;;;;;1.23;0.40;;;;;;;18.05;41.11;99063.97;5057494;28;20203;-68
2024/03/29 05:36:57;;;;;;;0.85;0.60;;;;;;;17.87;40.99;99029.88;5044557;28;20033;-68
2024/03/29 05:39:22;;;;;;;2.22;0.50;;;;;;;18.04;41.23;99070.25;5047857;28;20036;-71
2024/03/29 05:41:47;;;;;;;1.48;0.55;;;;;;;17.89;41.20;99051.63;5050795;28;20112;-69
2024/03/29 05:44:13;;;;;;;1.13;0.40;;;;;;;17.97;41.55;99060.53;5051633;28;20060;-71
2024/03/29 05:46:40;;;;;;;1.52;0.47;;;;;;;17.99;41.47;99069.09;5042833;28;20043;-68
2024/03/29 05:49:05;;;;;;;0.90;0.40;;;;;;;17.92;41.20;99059.19;5042984;28;20440;-68
2024/03/29 05:51:30;;;;;;;1.88;0.60;;;;;;;17.80;41.40;99044.72;5055380;28;20040;-69
2024/03/29 05:53:56;;;;;;;0.80;0.50;;;;;;;17.97;41.27;99084.25;5051164;28;20464;-69
2024/03/29 05:56:22;;;;;;;1.45;0.40;;;;;;;17.93;41.29;99078.50;5060245;28;20037;-72
2024/03/29 05:58:47;;;;;;;0.68;0.30;;;;;;;18.00;41.49;99082.09;5046294;28;20047;-69
2024/03/29 06:01:12;;;;;;;2.13;0.57;;;;;;;17.88;41.32;99073.72;5042609;28;20035;-70
2024/03/29 06:03:37;;;;;;;0.88;0.30;;;;;;;17.97;41.38;99087.69;5044608;28;20040;-68
2024/03/29 06:06:03;;;;;;;0.93;0.40;;;;;;;17.95;41.39;99102.88;5052074;28;20071;-68
2024/03/29 06:08:28;;;;;;;1.10;0.40;;;;;;;17.86;41.32;99104.63;5057937;28;20071;-69
2024/03/29 06:10:54;;;;;;;1.35;0.60;;;;;;;17.94;41.43;99112.59;5052673;28;20485;-69
2024/03/29 06:19:01;;;;;;;1.13;0.40;;;;;;;17.96;41.40;99120.34;5049708;28;20124;-69
2024/03/29 06:21:27;;;;;;;2.53;0.52;;;;;;;17.94;41.52;99109.97;5046277;28;20135;-70
2024/03/29 06:23:52;;;;;;;1.90;0.45;;;;;;;18.02;41.62;99110.94;5044105;28;20140;-68
2024/03/29 06:26:17;;;;;;;0.93;0.40;;;;;;;18.04;41.76;99115.06;5048176;28;20537;-68
2024/03/29 06:28:43;;;;;;;0.95;0.60;;;;;;;18.06;41.62;99120.16;5052666;28;20037;-68
2024/03/29 06:31:08;;;;;;;2.05;0.68;;;;;;;17.93;41.64;99095.13;5053654;28;20397;-68
2024/03/29 06:33:33;;;;;;;1.70;0.70;;;;;;;18.02;41.76;99111.75;5050596;28;20032;-71
2024/03/29 06:35:58;;;;;;;1.27;0.50;;;;;;;17.99;41.80;99101.56;5048897;28;20039;-70
2024/03/29 06:38:24;;;;;;;1.77;0.50;;;;;;;18.12;41.79;99114.22;5057423;28;20518;-70
2024/03/29 06:40:49;;;;;;;1.58;0.50;;;;;;;18.03;42.01;99078.31;5054166;28;20032;-69
2024/03/29 06:43:14;;;;;;;1.13;0.52;;;;;;;18.08;41.67;99083.91;5047185;28;20098;-69
2024/03/29 06:45:43;;;;;;;1.58;0.50;;;;;;;18.24;41.87;99091.78;5054440;28;20485;-68
2024/03/29 06:48:09;;;;;;;1.40;0.50;;;;;;;18.26;41.87;99088.97;5048696;28;20059;-69
2024/03/29 06:50:34;;;;;;;1.00;0.50;;;;;;;18.25;41.63;99080.25;5044677;28;20033;-70
2024/03/29 06:53:00;;;;;;;1.30;0.40;;;;;;;18.21;41.92;99071.03;5059132;28;21037;-68
2024/03/29 06:55:25;;;;;;;1.08;0.50;;;;;;;18.29;41.82;99080.72;5045283;28;20047;-68
2024/03/29 06:57:50;;;;;;;1.70;0.60;;;;;;;18.16;41.78;99070.72;5045097;28;20485;-67
2024/03/29 07:00:16;;;;;;;1.45;0.50;;;;;;;18.27;41.98;99093.28;5053911;28;20071;-68
2024/03/29 07:02:42;;;;;;;1.33;0.50;;;;;;;18.18;42.01;99066.06;5050615;28;20252;-68
2024/03/29 07:05:07;;;;;;;1.83;0.60;;;;;;;18.29;41.91;99086.00;5049008;28;20108;-70
2024/03/29 07:07:33;;;;;;;0.98;0.50;;;;;;;18.41;41.97;99094.41;5047271;28;20120;-68
2024/03/29 07:09:58;;;;;;;2.30;0.75;;;;;;;18.21;42.58;99065.75;5045109;28;20389;-69
2024/03/29 07:12:24;;;;;;;1.83;0.60;;;;;;;18.42;42.26;99102.16;5047327;28;20025;-68
2024/03/29 07:14:49;;;;;;;1.17;0.50;;;;;;;18.43;42.23;99106.41;5045488;28;20501;-68
2024/03/29 07:17:14;;;;;;;1.65;0.70;;;;;;;18.41;42.71;99100.50;5048994;28;20036;-72
2024/03/29 07:19:39;;;;;;;1.45;0.60;;;;;;;18.45;42.72;99119.44;5050559;28;20186;-69
2024/03/29 07:22:05;;;;;;;2.65;0.70;;;;;;;18.49;42.95;99133.94;5050718;28;20028;-70
2024/03/29 07:24:30;;;;;;;3.17;0.55;;;;;;;18.41;43.03;99118.94;5052687;28;20421;-68
2024/03/29 07:26:55;;;;;;;3.35;1.00;;;;;;;18.50;43.04;99138.25;5055041;28;20451;-71
2024/03/29 07:29:21;;;;;;;2.28;0.60;;;;;;;18.49;43.16;99140.03;5052034;28;20475;-68
2024/03/29 07:31:46;;;;;;;3.80;0.70;;;;;;;18.37;43.37;99122.09;5048698;28;20029;-70
2024/03/29 07:34:11;;;;;;;1.45;0.60;;;;;;;18.38;43.26;99127.19;5049035;28;20458;-68
2024/03/29 07:36:37;;;;;;;2.30;0.60;;;;;;;18.48;43.40;99125.22;5047264;28;20032;-69
2024/03/29 07:39:04;;;;;;;2.42;0.70;;;;;;;18.40;43.15;99114.66;5051163;28;20388;-70
2024/03/29 07:41:29;;;;;;;1.30;0.52;;;;;;;18.54;43.61;99146.63;5060511;28;20044;-71
2024/03/29 07:44:00;;;;;;;3.28;0.70;;;;;;;18.52;43.40;99141.53;5055466;28;20028;-69
2024/03/29 07:46:31;;;;;;;3.72;0.60;;;;;;;18.54;43.28;99154.53;5056160;28;20055;-69
2024/03/29 07:48:57;;;;;;;4.35;0.90;;;;;;;18.29;43.57;99112.38;5060861;28;20656;-72
2024/03/29 07:51:22;;;;;;;2.38;0.60;;;;;;;18.51;43.64;99142.50;5054942;28;20167;-71
2024/03/29 07:53:47;;;;;;;4.03;1.05;;;;;;;18.52;44.31;99128.34;5043250;28;20047;-71
2024/03/29 07:56:13;;;;;;;3.28;0.80;;;;;;;18.40;44.45;99114.66;5052795;28;20478;-68
2024/03/29 07:58:38;;;;;;;4.88;1.35;;;;;;;18.54;44.53;99136.06;5044458;28;20036;-69
2024/03/29 08:01:03;;;;;;;4.00;1.10;;;;;;;18.51;44.70;99124.03;5054462;28;20037;-71
2024/03/29 08:03:29;;;;;;;5.07;0.98;;;;;;;18.53;44.40;99127.31;5045291;28;20095;-69
2024/03/29 08:05:58;;;;;;;4.07;1.63;;;;;;;18.46;44.89;99110.53;5051654;28;20024;-68
2024/03/29 08:08:25;;;;;;;5.25;1.60;;;;;;;18.57;45.31;99119.91;5045847;28;20035;-65
2024/03/29 08:10:50;;;;;;;5.10;1.25;;;;;;;18.59;44.79;99126.66;5053968;28;20066;-67
2024/03/29 08:13:17;;;;;;;5.15;1.10;;;;;;;18.54;44.78;99126.34;5054216;28;20037;-66
2024/03/29 08:15:42;;;;;;;4.80;1.65;;;;;;;18.56;44.85;99134.91;5048402;28;20048;-67
2024/03/29 08:18:08;;;;;;;4.47;1.10;;;;;;;18.48;44.94;99114.66;5052997;28;20044;-66
2024/03/29 08:20:33;;;;;;;4.28;1.20;;;;;;;18.47;44.92;99096.38;5054553;28;20039;-69
2024/03/29 08:22:59;;;;;;;3.95;1.02;;;;;;;18.53;45.01;99118.59;5047475;28;20514;-67
2024/03/29 08:25:27;;;;;;;3.75;0.90;;;;;;;18.61;45.19;99134.41;5053665;28;20037;-70
2024/03/29 08:27:58;;;;;;;3.70;1.42;;;;;;;18.47;44.97;99120.94;5048211;28;20109;-69
2024/03/29 08:30:26;;;;;;;2.90;0.70;;;;;;;18.51;45.64;99128.50;5049188;28;20036;-69
2024/03/29 08:32:53;;;;;;;6.55;1.23;;;;;;;18.51;45.31;99126.69;5052837;28;20436;-66
2024/03/29 08:35:19;;;;;;;11.05;1.55;;;;;;;18.51;45.59;99129.31;5048349;28;20028;-69
2024/03/29 08:37:44;;;;;;;5.70;1.20;;;;;;;18.54;45.64;99123.69;5047073;28;20191;-69
2024/03/29 08:40:10;;;;;;;3.03;0.80;;;;;;;18.62;45.38;99128.13;5054613;28;20123;-68
2024/03/29 08:42:37;;;;;;;3.67;1.10;;;;;;;18.65;45.89;99146.28;5051021;28;21061;-66
2024/03/29 08:45:05;;;;;;;6.25;1.20;;;;;;;18.55;45.68;99124.50;5044485;28;20033;-70
2024/03/29 08:47:31;;;;;;;3.53;0.90;;;;;;;18.64;46.02;99153.38;5053019;28;20042;-67
2024/03/29 08:49:56;;;;;;;3.55;1.08;;;;;;;18.62;45.93;99168.53;5059378;28;20604;-66
2024/03/29 08:52:22;;;;;;;6.22;1.45;;;;;;;18.64;45.83;99171.84;5054961;28;20132;-67
2024/03/29 08:54:47;;;;;;;4.82;1.10;;;;;;;18.68;46.11;99188.97;5044998;28;20105;-72
2024/03/29 08:57:13;;;;;;;4.15;0.90;;;;;;;18.60;46.03;99169.72;5050016;28;20534;-67
2024/03/29 08:59:38;;;;;;;4.35;1.10;;;;;;;18.65;46.00;99170.03;5056766;28;20490;-67
2024/03/29 09:02:07;;;;;;;5.28;0.93;;;;;;;18.70;46.16;99174.78;5055472;28;20037;-67
2024/03/29 09:04:36;;;;;;;5.20;0.98;;;;;;;18.60;46.01;99141.50;5045887;28;20033;-67
2024/03/29 09:07:03;;;;;;;3.58;0.80;;;;;;;18.64;46.23;99148.09;5052732;28;20110;-67
2024/03/29 09:09:28;;;;;;;5.35;1.00;;;;;;;18.72;46.21;99164.88;5054785;28;20577;-69
2024/03/29 09:11:54;;;;;;;5.25;1.10;;;;;;;18.72;46.28;99173.63;5054949;28;20028;-67
2024/03/29 09:14:20;;;;;;;4.10;1.05;;;;;;;18.63;46.34;99157.00;5051211;28;20060;-66
2024/03/29 09:16:47;;;;;;;3.20;0.90;;;;;;;18.73;46.41;99162.06;5043745;28;20033;-66
2024/03/29 09:19:13;;;;;;;5.30;1.10;;;;;;;18.58;46.64;99140.84;5048313;28;20579;-67
2024/03/29 09:21:38;;;;;;;4.75;0.98;;;;;;;18.63;46.46;99164.91;5052411;28;20039;-68
2024/03/29 09:24:04;;;;;;;2.55;0.80;;;;;;;18.58;46.29;99161.97;5046709;28;20024;-68
2024/03/29 09:26:29;;;;;;;4.80;0.73;;;;;;;18.64;46.62;99163.09;5051298;28;20766;-69
2024/03/29 09:28:55;;;;;;;4.05;0.93;;;;;;;18.63;46.40;99164.91;5054737;28;20067;-72
2024/03/29 09:31:20;;;;;;;2.72;0.75;;;;;;;18.70;46.50;99172.16;5047210;28;20123;-68
2024/03/29 09:33:49;;;;;;;2.22;0.70;;;;;;;18.64;46.72;99169.22;5047318;28;20036;-71
2024/03/29 09:36:15;;;;;;;2.72;0.80;;;;;;;18.69;46.86;99192.41;5059620;28;20044;-68
2024/03/29 09:38:40;;;;;;;3.70;0.90;;;;;;;18.71;46.89;99206.28;5048350;28;20024;-69
2024/03/29 09:41:15;;;;;;;2.58;0.82;;;;;;;18.75;47.11;99204.94;5047646;28;20075;-68
2024/03/29 09:43:47;;;;;;;4.68;0.98;;;;;;;18.77;46.94;99212.69;5045918;28;20055;-71
2024/03/29 09:46:16;;;;;;;7.07;1.27;;;;;;;18.75;46.97;99201.50;5048822;28;20067;-69
2024/03/29 09:48:42;;;;;;;3.88;1.15;;;;;;;18.76;47.08;99211.88;5045733;28;20513;-71
2024/03/29 09:51:09;;;;;;;3.15;0.70;;;;;;;18.63;46.96;99193.94;5046301;28;20037;-70
2024/03/29 09:53:36;;;;;;;3.40;0.77;;;;;;;18.70;46.83;99206.47;5047663;28;20807;-69
2024/03/29 09:56:04;;;;;;;3.33;0.70;;;;;;;18.79;47.09;99232.66;5049096;28;20061;-69
2024/03/29 09:58:30;;;;;;;2.67;0.80;;;;;;;18.69;47.21;99216.16;5045932;28;20086;-67
2024/03/29 10:00:55;;;;;;;3.17;0.70;;;;;;;18.74;47.29;99229.72;5052612;28;20036;-69
2024/03/29 10:03:28;;;;;;;2.72;0.80;;;;;;;18.76;47.22;99232.19;5049757;28;20037;-67
2024/03/29 10:05:55;;;;;;;2.00;0.70;;;;;;;18.69;47.50;99213.53;5051720;28;20156;-69
2024/03/29 10:08:20;;;;;;;4.13;0.90;;;;;;;18.55;47.69;99187.84;5048600;28;20037;-68
2024/03/29 10:10:46;;;;;;;3.90;0.70;;;;;;;18.63;47.39;99195.75;5053141;28;20090;-69
2024/03/29 10:13:11;;;;;;;6.00;1.02;;;;;;;18.77;47.71;99215.34;5053430;28;20390;-69
2024/03/29 10:15:38;;;;;;;4.07;1.20;;;;;;;18.65;47.65;99188.50;5043854;28;20453;-69
2024/03/29 10:18:04;;;;;;;6.05;1.85;;;;;;;18.78;48.21;99201.16;5055311;28;20296;-72
2024/03/29 10:20:29;;;;;;;5.07;1.45;;;;;;;18.79;48.19;99200.19;5050266;28;20060;-67
2024/03/29 10:22:55;;;;;;;6.27;0.90;;;;;;;18.67;48.09;99182.06;5041340;28;20029;-69
2024/03/29 10:25:21;;;;;;;4.40;1.23;;;;;;;18.71;48.13;99187.81;5044950;28;20266;-68
2024/03/29 10:27:46;;;;;;;3.67;0.80;;;;;;;18.83;48.03;99210.22;5042993;28;20041;-67
2024/03/29 10:30:16;;;;;;;7.22;1.10;;;;;;;18.80;48.23;99210.56;5048822;28;20411;-70
2024/03/29 10:32:42;;;;;;;6.95;1.25;;;;;;;18.75;48.01;99215.50;5042747;28;20056;-67
2024/03/29 10:35:09;;;;;;;6.72;0.90;;;;;;;18.85;48.12;99228.56;5044962;28;20056;-67
2024/03/29 10:37:38;;;;;;;4.63;0.80;;;;;;;18.83;48.03;99218.16;5049971;28;20412;-68
2024/03/29 10:40:08;;;;;;;7.53;1.27;;;;;;;18.63;47.80;99185.19;5056770;28;20545;-69
2024/03/29 10:42:36;;;;;;;4.97;1.13;;;;;;;18.81;48.30;99217.47;5049038;28;20036;-67
2024/03/29 10:45:02;;;;;;;2.58;0.80;;;;;;;18.82;48.16;99220.97;5050765;28;20091;-68
2024/03/29 10:47:29;;;;;;;4.63;0.90;;;;;;;18.81;48.22;99225.38;5040184;28;20478;-69
2024/03/29 10:49:56;;;;;;;4.88;1.00;;;;;;;18.74;48.18;99219.16;5045921;28;20048;-66
2024/03/29 10:52:22;;;;;;;8.45;1.05;;;;;;;18.69;48.39;99224.09;5044342;28;20594;-69
2024/03/29 10:54:48;;;;;;;7.88;2.53;;;;;;;18.70;48.42;99241.56;5053949;28;20811;-68
2024/03/29 10:57:24;;;;;;;9.77;6.30;;;;;;;18.88;48.52;99273.09;5049892;28;20209;-68
2024/03/29 11:00:04;;;;;;;17.40;13.65;;;;;;;18.89;48.65;99269.47;5052334;28;20029;-67
2024/03/29 11:03:06;;;;;;;25.15;19.80;;;;;;;18.90;48.79;99280.84;5051819;28;20032;-69
2024/03/29 11:05:33;;;;;;;27.20;24.30;;;;;;;18.79;49.30;99255.59;5045848;28;20136;-69
2024/03/29 11:08:02;;;;;;;31.52;27.63;;;;;;;18.73;49.53;99233.31;5039200;28;20071;-68
2024/03/29 11:10:35;;;;;;;34.38;30.75;;;;;;;18.83;49.63;99244.53;5052800;28;20033;-70
2024/03/29 11:13:12;;;;;;;35.83;31.92;;;;;;;18.93;49.63;99238.25;5047825;28;20037;-69
2024/03/29 11:15:41;;;;;;;43.72;37.28;;;;;;;18.81;49.59;99196.34;5053625;28;20120;-67
2024/03/29 11:18:08;;;;;;;43.45;37.90;;;;;;;18.95;49.38;99220.47;5052626;28;20025;-71
2024/03/29 11:20:36;;;;;;;40.63;35.95;;;;;;;18.95;49.08;99220.47;5052883;28;20098;-71
2024/03/29 11:23:06;;;;;;;43.30;35.13;;;;;;;18.94;49.59;99216.16;5056041;28;20079;-68
2024/03/29 11:25:46;;;;;;;37.33;33.53;;;;;;;18.97;49.43;99236.94;5054876;28;20040;-67
2024/03/29 11:28:13;;;;;;;39.17;32.92;;;;;;;18.86;49.43;99227.56;5050469;28;20039;-68
2024/03/29 11:30:49;;;;;;;40.70;32.65;;;;;;;18.93;49.26;99244.38;5050293;28;20089;-69
2024/03/29 11:33:29;;;;;;;37.05;32.13;;;;;;;18.84;49.11;99243.56;5054732;28;20799;-67
2024/03/29 11:35:55;;;;;;;35.67;30.00;;;;;;;18.83;49.42;99236.63;5054141;28;20081;-69
2024/03/29 11:38:20;;;;;;;30.98;27.67;;;;;;;18.71;48.70;99223.91;5051476;28;20811;-66